x

8447387 - Borden Flats Light At Fall River, Ma (bltm3) Weather Station

4:18pm - Thu 29th Jan 2015 All times are EST. -5 hours from GMT.

  • Wind
    7mph, 8mph gusts
  • 空気 Temp 31°f
  • Sea Pressure 1021.7mb
  • 8447387 - Borden Flats Light At Fall River, Ma
  • 8447387 - Borden Flats Light At Fall River, Ma

More Historic Weather Station data

Upgrade to MSW Pro to gain access to the past 30 days of data for over 8000 Wavebouys and Weather Stations around the globe.

Join Pro

Comparision Forecast

View Surf forecast
   
Thu 01/29 4:18pm 7 8 mph 1021.7mb 31f
4:12pm 7 8 mph 1021.6mb 31f
4:06pm 7 8 mph 1021.6mb 32f
4:00pm 8
mph
1021.7mb 32f
3:54pm 7 8 mph 1021.7mb 32f
3:48pm 7 8 mph 1021.7mb 32f
3:42pm 7 8 mph 1021.8mb 32f
3:36pm 7 9 mph 1021.9mb 32f
3:30pm 8 9 mph 1022mb 32f
3:24pm 7 8 mph 1022mb 32f
3:18pm 7 8 mph 1022.1mb 32f
3:12pm 8 9 mph 1022.1mb 32f
3:06pm 8 9 mph 1022.2mb 32f
3:00pm 9
mph
1022.2mb 32f
2:54pm 9 10 mph 1022.3mb 32f
2:48pm 9 10 mph 1022.3mb 31f
2:42pm 9 10 mph 1022.3mb 31f
2:36pm 8 9 mph 1022.4mb 32f
2:30pm 8 9 mph 1022.5mb 32f
2:24pm 8 9 mph 1022.6mb 31f
2:18pm 9 10 mph 1022.7mb 31f
2:12pm 10 11 mph 1022.8mb 31f
2:06pm 10 11 mph 1022.9mb 31f
2:00pm 9 10 mph 1022.8mb 31f
1:30pm 9 10 mph 1023.1mb 29f
1:24pm 9 10 mph 1023.2mb 29f
1:18pm 6 8 mph 1023.3mb 30f
1:12pm 7 8 mph 1023.3mb 29f
1:06pm 5 6 mph 1023.2mb 29f
1:00pm 5 6 mph 1023.2mb 29f
12:54pm 3
mph
1023.2mb 30f
12:48pm 2 3 mph 1023.3mb 31f
12:42pm 2 3 mph 1023.5mb 29f
12:36pm 3
mph
1023.7mb 28f
12:30pm 3 5 mph 1023.9mb 27f
12:24pm 3 5 mph 1024mb 27f
12:18pm 2 3 mph 1024mb 26f
12:12pm 3 5 mph 1024.1mb 26f
12:06pm 2 3 mph 1024.2mb 26f
12:00pm 2 3 mph 1024.3mb 26f
11:54am 3 5 mph 1024.6mb 25f
11:48am 3 5 mph 1024.7mb 25f
11:42am 3 5 mph 1024.9mb 24f
11:36am 3 5 mph 1025.1mb 24f
11:30am 3 5 mph 1025.2mb 24f
11:24am 3 5 mph 1025.3mb 24f
11:18am 2
mph
1025.4mb 24f
11:12am 1
mph
1025.4mb 26f
11:06am  -  mph 1025.5mb 26f
11:00am  -  mph 1025.6mb 23f
10:00am 1 2 mph 1026.3mb 19f
9:54am 2 3 mph 1026.4mb 19f
9:48am  -  1 mph 1026.4mb 22f
9:42am  -  mph 1026.4mb 25f
9:36am  -  2 mph 1026.4mb 25f
9:30am 2 5 mph 1026.3mb 24f
9:24am 2 3 mph 1026.4mb 24f
9:18am 1 2 mph 1026.5mb 24f
9:12am 2
mph
1026.4mb 24f
9:06am  -  2 mph 1026.4mb 22f
9:00am 2 3 mph 1026.2mb 21f
8:54am  -  mph 1026.2mb 18f
8:48am  -  1 mph 1026.2mb 19f
8:42am  -  2 mph 1026.2mb 19f
8:36am 2 5 mph 1026.3mb 17f
8:30am 1 3 mph 1026.3mb 18f
8:24am 3 5 mph 1026.2mb 18f
8:18am 2 5 mph 1026.2mb 19f
8:12am 3 5 mph 1026.2mb 19f
8:06am 3 5 mph 1026.3mb 20f
8:00am 1 3 mph 1026.2mb 19f
7:54am 2 3 mph 1026.1mb 18f
7:48am 2 3 mph 1026mb 17f
7:42am  -  2 mph 1026mb 16f
7:36am 1 2 mph 1026mb 16f
7:30am 1 2 mph 1026mb 16f
7:24am 2 3 mph 1026mb 15f
7:18am 2 3 mph 1025.9mb 15f
7:12am 2 3 mph 1025.7mb 15f
7:06am 1 2 mph 1025.7mb 15f
7:00am 2 3 mph 1025.5mb 15f
6:54am 3 6 mph 1025.4mb 15f
6:48am 1 2 mph 1025.3mb 15f
6:42am 2 3 mph 1025.2mb 15f
6:36am  -  2 mph 1025.1mb 15f
6:30am 1 2 mph 1025.2mb 15f
6:24am 1 2 mph 1025.1mb 15f
6:18am 2 3 mph 1024.9mb 15f
6:12am 1 3 mph 1025mb 15f
6:06am 1 2 mph 1025mb 15f
6:00am 2 3 mph 1025.2mb 15f
5:54am 2
mph
1025.1mb 15f
5:48am 2 3 mph 1025.1mb 14f
5:42am  -  2 mph 1025mb 14f
5:36am 1 2 mph 1025mb 14f
5:30am 2 3 mph 1025mb 14f
5:24am 1 2 mph 1025mb 14f
5:18am 2 3 mph 1025.2mb 14f
5:12am 2 3 mph 1025.3mb 14f
5:06am 3 5 mph 1025.3mb 14f
5:00am 3 5 mph 1025.3mb 14f
4:54am 5
mph
1025.3mb 14f
4:48am 6
mph
1025.4mb 15f
4:42am 3 5 mph 1025.2mb 15f
4:36am 2 3 mph 1025.1mb 16f
4:30am 2 3 mph 1024.9mb 16f
4:24am 2
mph
1024.8mb 16f
4:18am 1 2 mph 1024.7mb 16f
4:12am 2
mph
1024.6mb 16f
4:06am 2 3 mph 1024.6mb 16f
4:00am  -  2 mph 1024.6mb 16f
3:54am 2 3 mph 1024.8mb 16f
3:48am 1 3 mph 1024.8mb 16f
3:42am 2 3 mph 1024.7mb 16f
3:36am 2 5 mph 1024.8mb 16f
3:30am 2 5 mph 1024.8mb 16f
3:24am 1 2 mph 1024.9mb 16f
3:18am 3
mph
1024.9mb 16f
3:12am 3 5 mph 1024.8mb 16f
3:06am 2 3 mph 1024.8mb 17f
3:00am 3 6 mph 1024.7mb 16f
2:54am 3 5 mph 1024.7mb 16f
2:48am 3 5 mph 1024.9mb 16f
2:42am 3 6 mph 1024.8mb 17f
2:36am 3 5 mph 1024.8mb 17f
2:30am 5 6 mph 1024.7mb 17f
2:24am 3 5 mph 1024.6mb 17f
2:18am 3 5 mph 1024.6mb 17f
2:12am 3 6 mph 1024.5mb 17f
2:06am 3 6 mph 1024.5mb 17f
2:00am 2
mph
1024.4mb 17f
1:54am 3 6 mph 1024.3mb 17f
1:48am 3 5 mph 1024.2mb 17f
1:42am 3 6 mph 1024.2mb 17f
1:36am 3 6 mph 1024.1mb 18f
1:30am 2 3 mph 1024mb 18f
1:24am 3 6 mph 1023.9mb 18f
1:18am 3 6 mph 1023.8mb 18f
1:12am 3 5 mph 1023.6mb 18f
1:06am 3 6 mph 1023.6mb 18f
1:00am 3 5 mph 1023.5mb 18f
12:54am 2 3 mph 1023.5mb 18f
12:48am 3 5 mph 1023.5mb 19f
12:42am 5
mph
1023.4mb 19f
12:36am 3 6 mph 1023.3mb 19f
12:30am 3 5 mph 1023.3mb 19f
12:24am 2 5 mph 1023.3mb 19f
12:18am 3 5 mph 1023.3mb 19f
12:12am 2 5 mph 1023.2mb 19f
12:06am 3 5 mph 1023.3mb 19f
12:00am 3 5 mph 1023.4mb 19f
Wed 01/28 11:54pm 3 5 mph 1023.4mb 19f
11:48pm 3 6 mph 1023.3mb 20f
11:42pm 5 6 mph 1023.3mb 20f
11:36pm 3 6 mph 1023.2mb 20f
11:30pm 5 6 mph 1023.2mb 20f
11:24pm 5 8 mph 1023mb 20f
11:18pm 7 8 mph 1023mb 20f
11:12pm 6 7 mph 1023mb 20f
11:06pm 6 7 mph 1022.9mb 20f
11:00pm 6 7 mph 1022.9mb 21f
10:54pm 6 7 mph 1022.8mb 21f
10:48pm 6 9 mph 1022.7mb 21f
10:42pm 6 9 mph 1022.6mb 21f
10:36pm 5 7 mph 1022.6mb 21f
10:30pm 6 7 mph 1022.5mb 21f
10:18pm 6 7 mph 1022.2mb 22f
10:12pm 6 7 mph 1022.2mb 22f
10:06pm 6 8 mph 1022.1mb 22f
10:00pm 5 6 mph 1022mb 22f
9:54pm 5 7 mph 1021.9mb 22f
9:48pm 5 7 mph 1021.8mb 22f
9:42pm 5 7 mph 1021.7mb 22f
9:36pm 5 6 mph 1021.6mb 22f
9:30pm 5 7 mph 1021.5mb 22f
9:24pm 5 7 mph 1021.4mb 22f
9:18pm 5 6 mph 1021.3mb 22f
9:12pm 5 7 mph 1021.2mb 22f
9:06pm 5 7 mph 1021.1mb 22f
9:00pm 3 6 mph 1021mb -
8:54pm 5 6 mph 1020.9mb -
8:48pm 5 6 mph 1020.9mb 22f
8:42pm 5 7 mph 1020.9mb 22f
8:36pm 5 7 mph 1020.9mb 23f
8:30pm 3 6 mph 1020.9mb 23f
8:24pm 6 7 mph 1020.8mb 23f
8:18pm 5 6 mph 1020.7mb 23f
8:12pm 3 6 mph 1020.7mb 23f
8:06pm 5
mph
1020.6mb 23f
8:00pm 5 6 mph 1020.5mb 23f
7:54pm 5 6 mph 1020.4mb 23f
7:48pm 5
mph
1020.2mb 23f
7:42pm 3 5 mph 1020.1mb 23f
7:36pm 3
mph
1020.1mb 23f
7:30pm 3 5 mph 1020mb 24f
7:24pm 3
mph
1019.9mb 24f
7:18pm 3 5 mph 1019.9mb 24f
7:12pm 3 5 mph 1019.9mb 24f
7:06pm 3 5 mph 1019.8mb 24f
7:00pm 3 5 mph 1019.7mb 24f
6:54pm 3
mph
1019.6mb 24f
6:48pm 3
mph
1019.5mb 24f
6:42pm 3 5 mph 1019.4mb 24f
6:36pm 5 6 mph 1019.2mb 24f
6:30pm 5 7 mph 1019.2mb 25f
6:24pm 6 7 mph 1019mb 25f
6:18pm 6
mph
1019mb 25f
6:12pm 5 6 mph 1018.9mb 25f
6:06pm 3 5 mph 1018.8mb 25f
6:00pm 3 5 mph 1018.6mb 25f
5:54pm 3 5 mph 1018.6mb 25f
5:48pm 5
mph
1018.5mb 25f
5:42pm 5 6 mph 1018.3mb 25f
5:36pm 5 6 mph 1018.2mb 25f
5:30pm 5 6 mph 1018.1mb 26f
5:24pm 6
mph
1018mb 26f
5:18pm 6 7 mph 1017.8mb 26f
5:12pm 6 8 mph 1017.6mb 26f
5:06pm 8 11 mph 1017.4mb 26f
5:00pm  -  mph 1017.2mb -
4:54pm  -  mph 1017mb -
4:48pm 10 14 mph 1017mb 28f
4:42pm 10 14 mph 1016.8mb 28f
4:36pm 6 8 mph 1016.9mb 29f
4:30pm 7 9 mph 1016.7mb 29f
4:24pm 9 11 mph 1016.6mb 29f
4:18pm  -  mph - 28f
4:12pm  -  mph - 29f
4:06pm  -  mph - 29f
4:00pm 11 16 mph 1016.1mb 29f
3:54pm 11 15 mph 1016mb 30f
3:48pm 10 14 mph 1015.9mb 30f
3:42pm 9 13 mph 1015.8mb 29f
3:36pm 9 13 mph 1015.7mb 29f
3:30pm 9 14 mph 1015.7mb 30f
3:24pm 11 14 mph 1015.6mb 29f
3:18pm 10 14 mph 1015.5mb 29f
3:12pm 11 15 mph 1015.5mb 28f
3:06pm 14 17 mph 1015.4mb 28f
3:00pm 14 17 mph 1015.3mb 28f
2:54pm 11 16 mph 1015.2mb 27f
2:48pm 10 15 mph 1015.1mb 27f
2:42pm 11 15 mph 1015mb 27f
2:36pm 14 17 mph 1014.9mb 26f
2:30pm 14 16 mph 1014.9mb 26f
2:24pm 11 15 mph 1014.8mb 25f
2:18pm 13 17 mph 1014.7mb 24f
2:12pm 15 18 mph 1014.6mb 24f
2:06pm 14 17 mph 1014.6mb 24f
2:00pm 14 17 mph 1014.6mb 24f
1:54pm 15 18 mph 1014.5mb 23f
1:48pm 16 21 mph 1014.5mb 23f
1:42pm 17 20 mph 1014.5mb 23f
1:36pm 13 17 mph 1014.5mb 23f
1:30pm 14 18 mph 1014.4mb 23f
1:24pm 14 18 mph 1014.3mb 24f
1:18pm 14 17 mph 1014.2mb 24f
1:12pm 15 21 mph 1014.1mb 24f
1:06pm 13 16 mph 1014.1mb 24f
1:00pm  -  mph 1014.1mb 24f
12:54pm  -  mph 1014mb 24f
12:48pm 11 16 mph 1013.9mb 24f
12:42pm 13 16 mph 1013.9mb 24f
12:36pm 14 16 mph 1013.8mb 24f
12:30pm 15 18 mph 1013.7mb 24f
12:24pm 14 18 mph 1013.6mb 24f
12:18pm 11 17 mph 1013.6mb 24f
12:12pm 13 16 mph 1013.5mb 24f
12:06pm 14 17 mph 1013.6mb 23f
12:00pm 13 17 mph 1013.6mb 23f
11:54am 13 17 mph 1013.6mb 23f
11:48am 11 15 mph 1013.6mb 23f
11:42am 11 15 mph 1013.6mb 22f
11:36am 10 15 mph 1013.7mb 22f
11:30am 13 15 mph 1013.7mb 22f
11:24am 16 20 mph 1013.7mb 22f
11:18am 13 16 mph 1013.8mb 22f
11:12am 11 16 mph 1013.7mb 22f
11:06am 13 16 mph 1013.8mb 21f
11:00am  -  mph - 21f
10:54am  -  mph - 21f
10:48am 15 18 mph 1013.8mb 21f
10:42am 13 15 mph 1013.7mb 21f
10:36am 15 20 mph 1013.6mb 20f
10:30am 14 20 mph 1013.6mb 21f
10:24am 13 16 mph 1013.5mb 20f
10:18am 14 20 mph 1013.4mb 20f
10:12am 16 20 mph 1013.4mb 19f
10:06am 17 21 mph 1013.3mb 19f
10:00am 16 21 mph 1013.3mb 19f
9:54am 16 23 mph 1013.3mb 19f
9:48am 16 21 mph 1013.2mb 18f
9:42am 16 21 mph 1013.1mb 18f
9:36am 16 21 mph 1013.1mb 18f
9:30am 17 20 mph 1013mb 18f
9:24am 15 22 mph 1013mb 18f
9:18am 16 21 mph 1012.8mb 18f
9:12am 15 22 mph 1012.8mb 18f
9:06am 14 17 mph 1012.8mb 17f
9:00am 15 18 mph 1012.7mb 17f
8:54am 17 21 mph 1012.6mb 16f
8:48am 15 18 mph 1012.6mb 16f
8:42am 15 22 mph 1012.5mb 16f
8:36am 14 21 mph 1012.5mb 15f
8:30am 17 23 mph 1012.4mb 15f
8:24am 15 22 mph 1012.3mb 15f
8:18am 17 22 mph 1012.1mb 15f
8:12am 16 22 mph 1012mb 15f
8:06am 14 18 mph 1011.9mb 15f
8:00am 15 22 mph 1011.8mb 15f
7:54am 14 20 mph 1011.7mb 14f
7:48am 14 20 mph 1011.7mb 14f
7:42am 15 20 mph 1011.5mb 14f
7:36am 15 18 mph 1011.4mb 14f
7:30am 11 16 mph 1011.3mb 14f
7:24am 11 17 mph 1011.2mb 14f
7:18am 15 20 mph 1011mb 13f
7:12am 13 15 mph 1010.9mb 14f
7:06am 13 17 mph 1010.8mb 13f
7:00am 11 16 mph 1010.8mb 14f
6:54am 11 15 mph 1010.6mb 14f
6:48am 13 16 mph 1010.5mb 14f
6:42am 13 18 mph 1010.4mb 14f
6:36am 11 15 mph 1010.3mb 13f
6:30am 10 14 mph 1010.2mb 14f
6:24am 9 13 mph 1010.1mb 14f
6:18am 13 16 mph 1010mb 14f
6:12am 11 16 mph 1010mb 14f
6:06am 10 15 mph 1009.9mb 15f
6:00am 10 14 mph 1009.8mb 14f
5:54am 11 15 mph 1009.7mb 15f
5:48am 11 14 mph 1009.6mb -
5:42am 13 17 mph 1009.5mb -
5:36am 10 15 mph 1009.4mb -
5:30am 10 15 mph 1009.3mb 15f
5:24am 9 11 mph 1009.2mb 14f
5:18am 10 16 mph 1009.1mb 15f
5:12am 10 14 mph 1008.9mb 14f
5:06am 10 14 mph 1008.8mb 15f
5:00am 8 13 mph 1008.7mb 14f
4:54am 11 16 mph 1008.5mb 14f
4:48am 13 20 mph 1008.3mb 14f
4:42am 9 15 mph 1008.2mb 15f
4:36am 14 18 mph 1008.1mb 15f
4:30am 13 20 mph 1008mb 15f
4:24am 14 20 mph 1007.9mb 14f
4:18am 14 17 mph 1007.8mb 14f
4:12am 16 25 mph 1007.6mb 15f
4:06am 11 15 mph 1007.5mb 15f
4:00am 13 20 mph 1007.5mb 15f
3:54am 11 16 mph 1007.4mb 15f
3:48am 14 16 mph 1007.3mb 15f
3:42am 14 20 mph 1007.2mb 15f
3:36am 14 22 mph 1007.1mb 15f
3:30am 17 21 mph 1007mb 15f
3:24am 14 20 mph 1006.9mb 15f
3:18am 15 18 mph 1006.8mb 15f
3:12am 13 16 mph 1006.8mb 15f
3:06am 11 16 mph 1006.7mb 15f
3:00am 10 14 mph 1006.6mb 15f
2:54am 14 17 mph 1006.5mb 15f
2:48am 10 15 mph 1006.4mb 15f
2:42am 14 16 mph 1006.2mb 15f
2:36am 11 15 mph 1006.1mb 15f
2:30am 11 15 mph 1006mb 15f
2:24am 15 21 mph 1005.8mb 15f
2:18am 14 18 mph 1005.8mb 15f
2:12am 14 20 mph 1005.7mb 15f
2:06am 13 18 mph 1005.7mb 15f
2:00am 14 18 mph 1005.6mb 15f
1:54am 14 20 mph 1005.5mb 15f
1:48am 14 18 mph 1005.4mb 15f
1:42am 15 21 mph 1005.3mb 15f
1:36am 14 18 mph 1005.2mb 15f
1:30am 14 21 mph 1005.1mb 15f
1:24am 16 21 mph 1005mb 15f
1:18am 14 20 mph 1005mb 15f
1:12am 16 22 mph 1004.9mb 15f
1:06am 16 21 mph 1004.8mb 15f
1:00am 14 18 mph 1004.8mb 15f
12:54am 15 20 mph 1004.7mb 15f
12:48am 15 21 mph 1004.6mb 15f
12:42am 14 21 mph 1004.6mb 15f
12:36am 14 22 mph 1004.5mb 15f
12:30am 15 21 mph 1004.5mb 15f
12:24am 14 18 mph 1004.5mb 15f
12:18am 16 22 mph 1004.4mb 15f
12:12am 16 22 mph 1004.3mb 15f
12:06am 16 21 mph 1004.3mb 15f
12:00am 15 24 mph 1004.3mb 15f
Tue 01/27 11:54pm 13 21 mph 1004.3mb 15f
11:48pm 16 20 mph 1004.2mb 15f
11:42pm 14 22 mph 1004.1mb 15f
11:36pm 17 22 mph 1004mb 15f
11:30pm 15 22 mph 1004mb 15f
11:24pm 16 21 mph 1003.9mb 16f
11:18pm 14 18 mph 1004mb 16f
11:12pm 16 21 mph 1003.9mb 16f
11:06pm 17 22 mph 1003.8mb 16f
11:00pm 15 21 mph 1003.8mb 16f
10:54pm 16 22 mph 1003.7mb 16f
10:48pm 15 18 mph 1003.7mb 16f
10:42pm 15 22 mph 1003.6mb 16f
10:36pm 14 18 mph 1003.5mb 16f
10:30pm 16 23 mph 1003.4mb 16f
10:24pm 14 20 mph 1003.3mb 16f
10:18pm 15 20 mph 1003.2mb 16f
10:12pm 16 22 mph 1003.2mb 16f
10:06pm 16 21 mph 1003mb 16f
10:00pm 16 21 mph 1002.9mb 16f
9:54pm 14 18 mph 1002.8mb 16f
9:48pm 16 20 mph 1002.7mb 16f
9:42pm 14 17 mph 1002.6mb 16f
9:36pm 14 21 mph 1002.6mb 16f
9:30pm 15 20 mph 1002.5mb 16f
9:24pm 16 20 mph 1002.4mb 16f
9:18pm 15 20 mph 1002.3mb 16f
9:12pm 17 22 mph 1002.2mb 17f
9:06pm 15 21 mph 1002.2mb 16f
9:00pm 16 24 mph 1002.1mb 17f
8:54pm 15 20 mph 1002.2mb 17f
8:48pm 16 20 mph 1002.1mb 17f
8:42pm 15 22 mph 1002mb 17f
8:36pm 18 22 mph 1001.9mb 17f
8:30pm 17 23 mph 1001.8mb 17f
8:24pm 15 23 mph 1001.7mb 17f
8:18pm 17 22 mph 1001.6mb 17f
8:12pm 18 24 mph 1001.5mb 17f
8:06pm 21 24 mph 1001.3mb 18f
8:00pm 20 29 mph 1001.2mb 18f
7:54pm 15 22 mph 1001.2mb 18f
7:48pm 15 21 mph 1001.1mb 19f
7:42pm 15 22 mph 1001mb 19f
7:36pm 16 21 mph 1000.9mb 19f
7:30pm 20 28 mph 1000.8mb 19f
7:24pm 16 23 mph 1000.7mb 19f
7:18pm 20 28 mph 1000.6mb 19f
7:12pm 18 24 mph 1000.5mb 19f
7:06pm 17 26 mph 1000.3mb 19f
7:00pm 23 31 mph 1000.1mb 19f
6:54pm 23 37 mph 1000.1mb 19f
6:48pm 21 30 mph 1000mb 19f
6:42pm 22 28 mph 999.9mb 19f
6:36pm 16 23 mph 999.9mb 19f
6:30pm 22 30 mph 999.7mb 19f
6:24pm 20 25 mph 999.8mb 19f
6:18pm 21 29 mph 999.6mb 19f
6:12pm 20 25 mph 999.5mb 20f
6:06pm 22 30 mph 999.4mb 20f
6:00pm 20 26 mph 999.3mb 20f
5:54pm 15 22 mph 999.3mb 20f
5:48pm 16 25 mph 999.2mb 20f
5:42pm 17 26 mph 999.1mb 19f
5:36pm 23 33 mph 998.9mb 19f
5:30pm 20 30 mph 998.9mb 19f
5:24pm 20 26 mph 998.7mb 19f
5:18pm 22 29 mph 998.5mb 19f
5:12pm 20 26 mph 998.6mb 19f
5:06pm 20 25 mph 998.4mb 19f
5:00pm 25 32 mph 998.3mb 19f
4:54pm 22 33 mph 998.3mb 19f
4:48pm 26 43 mph 998.1mb 19f
4:42pm 20 25 mph 998.2mb 19f
4:36pm 24 32 mph 998mb 19f
4:30pm 23 30 mph 998mb 19f
4:24pm 21 33 mph 998mb 19f
4:18pm 24 34 mph 997.8mb 19f
4:12pm 21 28 mph 997.8mb 19f
4:06pm 28 37 mph 997.5mb 19f
4:00pm 20 29 mph 997.7mb 19f
3:54pm 22 31 mph 997.6mb 19f
3:48pm 25 37 mph 997.5mb 19f
3:42pm 22 31 mph 997.5mb 19f
3:36pm 23 29 mph 997.4mb 19f
3:30pm 18 25 mph 997.6mb 19f
3:24pm 21 33 mph 997.6mb 19f
3:18pm 22 30 mph 997.5mb 19f
3:12pm 17 28 mph 997.6mb 19f
3:06pm 21 25 mph 997.5mb 19f
3:00pm 25 36 mph 997.4mb 19f
2:54pm 23 31 mph 997.3mb 19f
2:48pm 23 36 mph 997.3mb 19f
2:42pm 21 34 mph 997.3mb 19f
2:36pm 22 31 mph 997.2mb 19f
2:30pm 23 34 mph 997mb 19f
2:24pm 25 37 mph 996.9mb 19f
2:18pm 24 31 mph 996.8mb 19f
2:12pm 29 37 mph 996.7mb 19f
2:06pm 24 32 mph 996.8mb 19f
2:00pm 28 38 mph 996.6mb 19f
1:54pm 21 29 mph 996.7mb 19f
1:48pm 21 26 mph 996.7mb 19f
1:42pm 23 31 mph 996.7mb 19f
1:36pm 22 30 mph 996.7mb 19f
1:30pm 20 26 mph 996.7mb 19f
1:24pm 28 39 mph 996.5mb 19f
1:18pm 21 31 mph 996.7mb 19f
1:12pm 21 30 mph 996.7mb 18f
1:06pm 23 31 mph 996.5mb 18f
1:00pm 23 31 mph 996.5mb 18f
12:54pm 22 30 mph 996.4mb 18f
12:48pm 22 29 mph 996.4mb 18f
12:42pm 26 36 mph 996.3mb 18f
12:36pm 21 29 mph 996.4mb 18f
12:30pm 22 31 mph 996.3mb 19f
12:24pm 16 24 mph 996.4mb 19f
12:18pm 18 24 mph 996.4mb 18f
12:12pm 21 28 mph 996.3mb 18f
12:06pm 21 26 mph 996.4mb 18f
12:00pm 22 29 mph 996.5mb 18f
11:54am 23 32 mph 996.5mb 18f
11:48am 24 31 mph 996.4mb 18f
11:42am 21 29 mph 996.6mb 18f
11:36am 21 31 mph 996.6mb 18f
11:30am 21 30 mph 996.6mb 18f
11:24am 20 26 mph 996.7mb 18f
11:18am 21 30 mph 996.8mb 18f
11:12am 16 24 mph 996.7mb 18f
11:06am 20 26 mph 996.8mb 18f
11:00am 21 30 mph 996.8mb 19f
10:54am 20 29 mph 996.7mb 19f
10:48am 17 24 mph 996.9mb 19f
10:42am 17 24 mph 996.8mb 19f
10:36am 17 24 mph 996.8mb 19f
10:30am 22 31 mph 996.7mb 19f
10:24am 21 29 mph 996.7mb 20f
10:18am 18 28 mph 996.8mb 20f
10:12am 22 34 mph 996.7mb 19f
10:06am 22 29 mph 996.6mb 19f
10:00am 24 39 mph 996.4mb 19f
9:54am 21 33 mph 996.5mb 19f
9:48am 23 31 mph 996.4mb 19f
9:42am 29 37 mph 996.1mb 19f
9:36am 28 38 mph 996.2mb 19f
9:30am 29 38 mph 996.1mb 19f
9:24am 30 39 mph 996.1mb 19f
9:18am 31 48 mph 996.2mb 18f
9:12am 30 41 mph 996.4mb 18f
9:06am 26 38 mph 996.5mb 18f
9:00am 26 34 mph 996.7mb 18f
8:54am 29 45 mph 996.9mb 18f
8:48am 28 38 mph 996.8mb 18f
8:42am 29 41 mph 996.8mb 18f
8:36am 31 47 mph 996.9mb 18f
8:30am 32 45 mph 997mb 18f
8:24am 28 40 mph 997.2mb 18f
8:18am 23 34 mph 997.4mb 17f
8:12am 30 44 mph 997.1mb 17f
8:06am 29 41 mph 997.2mb 17f
8:00am 29 40 mph 997.4mb 17f
7:54am 29 43 mph 997.4mb 17f
7:48am 31 44 mph 997.4mb 17f
7:42am 30 41 mph 997.6mb 17f
7:36am 25 40 mph 997.8mb 17f
7:30am 29 44 mph 997.7mb 17f
7:24am 29 44 mph 997.7mb 17f
7:18am 26 37 mph 997.7mb 17f
7:12am 30 49 mph 997.3mb 17f
7:06am 32 44 mph 997.1mb 17f
7:00am 31 45 mph 997.2mb 17f
6:54am 30 39 mph 997mb 17f
6:48am 33 55 mph 996.7mb 18f
6:42am 32 44 mph 996.8mb 18f
6:36am 30 45 mph 997mb 18f
6:30am 32 41 mph 996.9mb 18f
6:24am 25 37 mph 997.3mb 18f
6:18am 29 43 mph 997.2mb 18f
6:12am 30 40 mph 997mb 18f
6:06am 31 43 mph 996.9mb 18f
6:00am 26 44 mph 997.1mb 18f
5:54am 28 36 mph 996.9mb 18f
5:48am 29 45 mph 997mb 18f
5:42am 31 44 mph 997.1mb 18f
5:36am 26 37 mph 997.2mb 18f
5:30am 29 39 mph 997.1mb 18f
5:24am 30 44 mph 997mb 18f
5:18am 25 40 mph 997mb 18f
5:12am 30 43 mph 996.8mb 18f
5:06am 29 54 mph 996.8mb 19f
5:00am 30 45 mph 996.6mb 19f
4:54am 32 49 mph 996.6mb 18f
4:48am 30 45 mph 996.8mb 19f
4:42am 32 43 mph 996.8mb 19f
4:36am 29 41 mph 997mb 19f
4:30am 28 44 mph 997.2mb 19f
4:24am 30 44 mph 997.1mb 19f
4:18am 25 40 mph 997.4mb 19f
4:12am 30 45 mph 997.3mb 19f
4:06am 30 41 mph 997.4mb 19f
3:54am 32 45 mph 997.4mb 20f
3:48am 29 43 mph 997.7mb 20f
3:42am 29 40 mph 997.5mb 20f
3:36am 28 45 mph 997.8mb 20f
3:30am 30 40 mph 997.6mb 20f
3:24am 31 48 mph 997.5mb 20f
3:18am 28 38 mph 997.8mb 20f
3:12am 28 38 mph 997.9mb 20f
3:06am 26 37 mph 998.2mb 20f
3:00am 25 36 mph 998.4mb 20f
2:54am 26 37 mph 998.5mb 21f
2:48am 24 33 mph 998.6mb 21f
2:42am 28 37 mph 998.7mb 21f
2:36am 29 38 mph 998.9mb 21f
2:30am 25 36 mph 999.3mb 22f
2:24am 25 36 mph 999.6mb 22f
2:18am 25 32 mph 999.8mb 22f
2:12am 25 34 mph 999.7mb 23f
2:06am 28 38 mph 999.6mb 23f
2:00am 25 39 mph 999.7mb 24f
1:54am 30 43 mph 999.4mb 24f
1:48am 30 46 mph 999.5mb 26f
1:42am 31 44 mph 999.5mb 26f
1:36am 33 46 mph 999.7mb 26f
1:30am 34 51 mph 999.7mb 27f
1:24am 30 39 mph 1000.2mb 27f
1:18am 32 43 mph 1000.2mb 28f
1:12am 30 40 mph 1000.2mb 28f
1:06am 34 45 mph 1000.1mb 29f
1:00am 32 44 mph 1000.5mb 29f
12:54am 33 46 mph 1000.6mb 29f
12:48am 36 49 mph 1000.7mb 29f
12:42am 38 56 mph 1000.8mb 29f
12:36am 38 52 mph 1001mb 30f
12:30am 31 46 mph 1001.5mb 30f
12:24am 30 38 mph 1001.8mb 30f
12:18am 31 41 mph 1001.9mb 29f
12:12am 32 44 mph 1002mb 29f
12:06am 32 40 mph 1002mb 29f
12:00am 30 43 mph 1002.5mb 29f
Mon 01/26 11:54pm 32 41 mph 1002.6mb 29f
11:48pm 26 34 mph 1003mb 29f
11:42pm 29 39 mph 1003.1mb 29f
11:36pm 30 38 mph 1003.4mb 29f
11:30pm 32 43 mph 1003.6mb 29f
11:24pm 31 45 mph 1004mb 29f
11:18pm 32 46 mph 1004.1mb 29f
11:12pm 30 38 mph 1004.3mb 29f
11:06pm 36 46 mph 1004.3mb 30f
11:00pm 32 49 mph 1004.6mb 30f
10:54pm 36 46 mph 1004.5mb 29f
10:48pm 37 47 mph 1004.7mb 30f
10:42pm 31 41 mph 1005.2mb 30f
10:36pm 33 41 mph 1005.5mb 30f
10:30pm 33 43 mph 1005.9mb 30f
10:24pm 34 44 mph 1006.1mb 30f
10:18pm 29 40 mph 1006.3mb 30f
10:12pm 30 37 mph 1006.3mb 30f
10:06pm 29 39 mph 1006.3mb 30f
10:00pm 30 43 mph 1006.3mb 29f
9:54pm 29 43 mph 1006.5mb 29f
9:48pm 28 32 mph 1006.9mb 29f
9:42pm 29 34 mph 1007.3mb 29f
9:36pm 28 37 mph 1007.6mb 29f
9:30pm 30 39 mph 1007.9mb 29f
9:24pm 31 39 mph 1008mb 29f
9:18pm 30 37 mph 1008.2mb 30f
9:12pm 26 33 mph 1008.5mb 30f
9:06pm 30 38 mph 1008.6mb 30f
9:00pm 29 34 mph 1009.1mb 30f
8:54pm 26 32 mph 1009.3mb 30f
8:48pm  -  mph 1009.5mb 30f
8:42pm  -  mph 1009.6mb 30f
8:36pm  -  mph 1009.7mb 30f
8:30pm 22 28 mph 1010.1mb 30f
8:24pm 23 29 mph 1010.7mb 30f
8:18pm 24 32 mph 1010.8mb 30f
8:12pm 23 31 mph 1011mb 30f
8:06pm 23 28 mph 1011mb 30f
8:00pm 28 39 mph 1011mb 29f
7:54pm 25 33 mph 1011.1mb 30f
7:48pm 23 28 mph 1011.2mb 30f
7:42pm 25 30 mph 1011.3mb 30f
7:36pm 24 29 mph 1011.7mb 30f
7:30pm 23 30 mph 1011.7mb 30f
7:24pm 23 28 mph 1012mb 30f
7:18pm 23 28 mph 1012.3mb 30f
7:12pm 22 29 mph 1012.6mb 30f
7:06pm 21 30 mph 1012.6mb 30f
7:00pm 22 28 mph 1012.4mb 30f
6:54pm 21 28 mph 1012.3mb 30f
6:48pm 21 28 mph 1012.5mb 30f
6:42pm 20 24 mph 1012.6mb 30f
6:36pm 18 21 mph 1012.7mb 30f
6:30pm 21 26 mph 1012.5mb 30f
6:24pm 20 22 mph 1012.7mb 30f
6:18pm 20 24 mph 1012.6mb 30f
6:12pm 20 25 mph 1012.7mb 30f
6:06pm 21 24 mph 1012.8mb 30f
6:00pm 20 23 mph 1012.9mb 30f
5:54pm 20 25 mph 1013mb 30f
5:48pm 20 24 mph 1013.2mb 30f
5:42pm 18 23 mph 1013.3mb 30f
5:36pm 17 22 mph 1013.5mb 30f
5:30pm 18 25 mph 1013.6mb 30f
5:24pm 17 21 mph 1013.7mb 30f
5:18pm 17 22 mph 1013.7mb 30f
5:12pm 18 22 mph 1013.8mb 30f
5:06pm 17 26 mph 1013.8mb 30f
5:00pm 16 20 mph 1014mb 30f
4:54pm 16 22 mph 1014mb 30f
4:48pm 16 21 mph 1013.8mb 30f
4:42pm 17 21 mph 1013.8mb 29f
4:36pm 20 22 mph 1013.5mb 30f
4:30pm 17 21 mph 1013.6mb 29f
4:24pm 16 20 mph 1013.5mb 30f
4:18pm 18 23 mph 1013.7mb 29f
4:12pm 17 22 mph 1013.8mb 29f
4:06pm 17 23 mph 1014mb 29f
4:00pm 15 21 mph 1014mb 29f
3:54pm 15 18 mph 1014mb 29f
3:48pm 14 17 mph 1014.1mb 29f
3:42pm 15 18 mph 1014mb 30f
3:36pm 15 20 mph 1014mb 29f
3:30pm 14 17 mph 1014mb 29f
3:24pm 16 22 mph 1013.9mb 29f
3:18pm 15 18 mph 1013.9mb 29f
3:12pm 15 17 mph 1014.1mb 29f
3:06pm 14 17 mph 1014.1mb 29f
3:00pm 15 20 mph 1014.1mb 29f
2:54pm 15 17 mph 1014.3mb 29f
2:48pm 14 16 mph 1014.6mb 29f
2:42pm 15 18 mph 1014.5mb 29f
2:36pm 15 16 mph 1014.5mb 29f
2:30pm 14 17 mph 1014.7mb 29f
2:24pm 13 15 mph 1014.9mb 29f
2:18pm 11 14 mph 1014.7mb 28f
2:12pm 11 14 mph 1014.6mb 28f
2:06pm 11 14 mph 1014.8mb 27f
2:00pm 10 14 mph 1014.8mb 27f
1:54pm 13 15 mph 1014.6mb 27f
1:48pm 11 14 mph 1014.9mb 27f
1:42pm 11 14 mph 1014.9mb 27f
1:36pm 11 14 mph 1015.1mb 27f
1:30pm 13 15 mph 1015.4mb 26f
1:24pm 13 14 mph 1015.5mb 26f
1:18pm 13 16 mph 1015.5mb 26f
1:12pm 13 15 mph 1015.5mb 26f
1:06pm 13 15 mph 1015.7mb 25f
1:00pm 15 20 mph 1015.5mb 25f
12:54pm 13 14 mph 1015.8mb 25f
12:48pm 14 16 mph 1015.9mb 25f
12:42pm 11 15 mph 1016mb 25f
12:36pm 14 17 mph 1016mb 24f
12:30pm 13 16 mph 1016.1mb 24f
12:24pm 13 15 mph 1016.3mb 24f
12:18pm 13 16 mph 1016.5mb 24f
12:12pm 13 15 mph 1016.7mb 24f
12:06pm 14 17 mph 1016.9mb 24f
12:00pm 13 16 mph 1016.9mb 24f
11:54am 14 17 mph 1017.1mb 23f
11:48am 13 17 mph 1017.2mb 23f
11:42am 14 16 mph 1017.4mb 23f
11:36am 11 16 mph 1017.5mb 23f
11:30am 11 14 mph 1017.5mb 23f
11:24am 11 14 mph 1017.6mb 22f
11:18am 10 14 mph 1017.7mb 22f
11:12am 10 15 mph 1017.9mb 22f
11:06am 13 15 mph 1018.2mb 22f
11:00am 11 14 mph 1018.4mb 22f
10:54am 11 14 mph 1018.4mb 22f
10:48am 9 13 mph 1018.3mb 22f
10:42am 13 18 mph 1018.3mb 22f
10:36am 13 16 mph 1018.3mb 21f
10:30am 13 16 mph 1018.5mb 21f
10:24am 14 17 mph 1018.4mb 21f
10:18am 11 15 mph 1018.5mb 21f
10:12am 14 17 mph 1018.5mb 20f
10:06am 14 18 mph 1018.5mb 20f
10:00am 16 21 mph 1018.3mb 20f
9:54am 13 16 mph 1018.3mb 20f
9:48am 13 16 mph 1018.4mb 19f
9:42am 16 20 mph 1018.4mb 19f
9:36am 17 22 mph 1018.3mb 19f
9:30am 14 20 mph 1018.4mb 19f
9:24am 11 16 mph 1018.5mb 19f
9:18am 15 18 mph 1018.5mb 19f
9:12am 14 17 mph 1018.6mb 19f
9:06am 14 18 mph 1018.6mb 19f
9:00am 11 15 mph 1018.6mb 19f
8:54am 14 17 mph 1018.6mb 19f
8:48am 14 18 mph 1018.6mb 19f
8:42am 15 18 mph 1018.6mb 18f
8:36am 16 21 mph 1018.7mb 18f
8:30am 13 15 mph 1018.8mb 18f
8:24am 14 17 mph 1018.8mb 18f
8:18am 15 18 mph 1018.8mb 18f
8:12am 11 16 mph 1018.9mb 18f
8:06am 13 16 mph 1018.9mb 18f
8:00am 13 16 mph 1018.9mb 18f
7:54am 10 14 mph 1019mb 19f
7:48am 10 13 mph 1019mb 18f
7:42am 10 11 mph 1018.9mb 18f
7:36am 11 15 mph 1019mb 18f
7:30am 9 14 mph 1019.1mb 18f
7:24am 10 13 mph 1019.1mb 19f
7:18am 10 14 mph 1018.9mb 19f
7:12am 13 15 mph 1018.8mb 19f
7:06am 13 15 mph 1018.9mb 19f
7:00am 9 11 mph 1018.9mb 19f
6:54am 13 16 mph 1018.8mb 18f
6:48am 11 16 mph 1018.7mb 19f
6:42am 13 15 mph 1018.7mb 19f
6:36am 13 17 mph 1018.7mb 19f
6:30am 9 13 mph 1018.8mb 19f
6:24am 11 15 mph 1018.8mb 19f
6:18am 11 14 mph 1018.7mb 19f
6:12am 13 15 mph 1018.8mb 19f
6:06am 9 13 mph 1018.7mb 19f
6:00am 11 15 mph 1018.7mb 19f
5:54am 13 16 mph 1018.8mb 19f
5:48am 11 14 mph 1018.6mb 19f
5:42am 11 16 mph 1018.4mb 19f
5:36am 14 16 mph 1018.3mb 20f
5:30am 11 15 mph 1018.2mb 20f
5:24am 14 17 mph 1018.3mb 20f
5:18am 13 16 mph 1018.3mb 20f
5:12am 13 17 mph 1018.4mb 20f
5:06am 13 17 mph 1018.3mb 20f
5:00am 13 16 mph 1018.1mb 20f
4:54am 13 17 mph 1017.9mb 20f
4:48am 14 16 mph 1018mb 20f
4:42am 11 15 mph 1018.1mb 20f
4:36am 14 16 mph 1018.1mb 21f
4:30am 13 16 mph 1018mb 21f
4:24am 14 17 mph 1017.9mb 21f
4:18am 14 16 mph 1017.8mb 21f
4:12am 14 16 mph 1017.8mb 21f
4:06am 11 15 mph 1017.8mb 22f
4:00am 10 13 mph 1017.8mb 22f
3:54am 11 15 mph 1017.8mb 22f
3:48am 11 15 mph 1017.8mb 22f
3:42am 10 14 mph 1017.7mb 22f
3:36am 11 14 mph 1017.7mb 22f
3:30am 10 14 mph 1017.8mb 22f
3:24am 14 15 mph 1017.7mb 22f
3:18am 13 16 mph 1017.6mb 22f
3:12am 15 18 mph 1017.7mb 22f
3:06am 11 14 mph 1017.7mb 23f
3:00am 10 13 mph 1017.7mb 23f
2:54am 9 11 mph 1017.7mb 23f
2:48am 8 11 mph 1017.5mb 23f
2:42am 11 15 mph 1017.4mb 23f
2:36am 11 14 mph 1017.3mb 23f
2:30am 15 20 mph 1017.2mb 23f
2:24am 13 17 mph 1017.3mb 23f
2:18am 10 13 mph 1017.3mb 23f
2:12am 9 14 mph 1017.3mb 23f
2:06am 11 14 mph 1017.2mb 23f
2:00am 14 16 mph 1017.1mb 24f
1:54am 13 16 mph 1017.1mb 24f
1:48am 9 11 mph 1017.1mb 24f
1:42am 9 11 mph 1017.1mb 24f
1:36am 8 10 mph 1016.7mb 24f
1:30am 9 13 mph 1016.7mb 24f
1:24am 10 14 mph 1016.7mb 24f
1:18am 10 13 mph 1016.8mb 24f
1:12am 13 16 mph 1016.7mb 24f
1:06am 9 11 mph 1016.6mb 24f
1:00am 10 13 mph 1016.6mb 24f
12:54am 8 11 mph 1016.6mb 25f
12:48am 8 10 mph 1016.6mb 25f
12:42am 6 10 mph 1016.8mb 25f
12:36am 6 7 mph 1016.5mb 25f
12:30am 7 9 mph 1016.2mb 25f
12:24am 8 10 mph 1016.4mb 25f
12:18am 9 11 mph 1016.3mb 25f
12:12am 8 10 mph 1016.2mb 25f
12:06am 7 9 mph 1016.3mb 25f
12:00am 8 11 mph 1016.4mb 26f
Sun 01/25 11:54pm 9 14 mph 1016.4mb 26f
11:48pm 9 13 mph 1016.4mb 26f
11:42pm 7 9 mph 1016.5mb 26f
11:36pm 6 8 mph 1016.3mb 26f
11:30pm 6 8 mph 1016.2mb 26f
11:24pm 6 9 mph 1016.1mb 26f
11:18pm 3 6 mph 1016.1mb 26f
11:12pm 6 8 mph 1015.7mb 26f
11:06pm 6 8 mph 1015.7mb 26f
11:00pm 8 11 mph 1015.5mb 26f
10:54pm 7 9 mph 1015.3mb 26f
10:48pm 6 7 mph 1015.2mb 26f
10:42pm 6 9 mph 1015.1mb 27f
10:36pm 8 13 mph 1014.9mb 27f
10:30pm 7 10 mph 1014.9mb 27f
10:24pm 5 7 mph 1014.9mb 27f
10:18pm 7 9 mph 1014.7mb 27f
10:12pm 6 8 mph 1014.6mb 27f
10:06pm 6 8 mph 1014.6mb 27f